Hauptseite
METAR-TAF:

METAR-TAF

Flughäfen :

Bohrplattform

P11-b, Niederlande

Breite: 52-21-36N, Länge: 3-20-30E, Höhe: 24 m

Beobachtung

Neuester Wetterbericht von vor 17 Minuten, um 20:55 UTC
Wind 11 kt aus West/Nordwest, variierte zwischen West/Südwest und Nord/Nordwest
Temperatur 7°C
Luftfeuchtigkeit 66%
Luftdruck 1000 hPa
Sichtweite 10 km oder mehr
Leicht bewölkt in der Höhe von 1300 ft
Aufgelockert bewölkt in der Höhe von 2400 ft
Durchbrochene Bewölkung in der Höhe von 3400 ft

METAR: EHPG 162055Z AUTO 29011KT 250V340 9999 FEW013 SCT024 BKN034 07/01 Q1000 W///H///

Zeit: 22:12 (21:12 UTC)


TAF: fehlend

Wetterbeobachtungen und Prognosen von mehr als 4000 Flughäfen (METAR und TAF Bericht).

Die verfügbaren Stationen werden durch gelbe und rote Markierungen auf der Karte dargestellt.

Führen Sie die Maus auf sie, um den Namen der Station zu sehen.

Darauf klicken, um die Beobachtung von Wetterbeobachtungen und Prognosen zu sehen.

Um die Karte zu ändern : klicken Sie auf den grünen Tasten mit einem schwarzen Kreuz Zum Vergrößern, auf den grünen Button mit einem Gedankenstrich zu verkleinern, oder auf die grünen Pfeile für benachbarte Karten.


METAR-TAF: